sensor_id;sensor_type;location;lat;lon;timestamp;P1;durP1;ratioP1;P2;durP2;ratioP2
15063;SDS011;7631;52.088;5.088;2023-09-19T00:00:37;3.00;;;1.00;;
15063;SDS011;7631;52.088;5.088;2023-09-19T00:03:03;2.03;;;1.30;;
15063;SDS011;7631;52.088;5.088;2023-09-19T00:05:29;2.13;;;1.00;;
15063;SDS011;7631;52.088;5.088;2023-09-19T00:07:56;2.37;;;1.20;;
15063;SDS011;7631;52.088;5.088;2023-09-19T00:10:23;3.67;;;1.40;;
15063;SDS011;7631;52.088;5.088;2023-09-19T00:12:58;1.30;;;0.93;;
15063;SDS011;7631;52.088;5.088;2023-09-19T00:15:30;2.00;;;1.00;;
15063;SDS011;7631;52.088;5.088;2023-09-19T00:17:56;2.70;;;1.13;;
15063;SDS011;7631;52.088;5.088;2023-09-19T00:20:21;1.50;;;1.03;;
15063;SDS011;7631;52.088;5.088;2023-09-19T00:22:48;1.70;;;1.17;;
15063;SDS011;7631;52.088;5.088;2023-09-19T00:25:14;2.30;;;1.10;;
15063;SDS011;7631;52.088;5.088;2023-09-19T00:27:40;2.30;;;0.97;;
15063;SDS011;7631;52.088;5.088;2023-09-19T00:30:11;1.27;;;1.13;;
15063;SDS011;7631;52.088;5.088;2023-09-19T00:32:41;1.73;;;1.00;;
15063;SDS011;7631;52.088;5.088;2023-09-19T00:35:06;1.40;;;1.00;;
15063;SDS011;7631;52.088;5.088;2023-09-19T00:37:33;1.47;;;1.03;;
15063;SDS011;7631;52.088;5.088;2023-09-19T00:39:59;2.97;;;1.30;;
15063;SDS011;7631;52.088;5.088;2023-09-19T00:42:24;2.40;;;1.13;;
15063;SDS011;7631;52.088;5.088;2023-09-19T00:44:50;1.30;;;0.93;;
15063;SDS011;7631;52.088;5.088;2023-09-19T00:47:16;1.60;;;1.00;;
15063;SDS011;7631;52.088;5.088;2023-09-19T00:49:41;1.93;;;1.00;;
15063;SDS011;7631;52.088;5.088;2023-09-19T00:52:07;2.30;;;0.97;;
15063;SDS011;7631;52.088;5.088;2023-09-19T00:54:35;1.40;;;0.87;;
15063;SDS011;7631;52.088;5.088;2023-09-19T00:57:01;2.87;;;1.13;;
15063;SDS011;7631;52.088;5.088;2023-09-19T00:59:26;1.40;;;1.10;;
15063;SDS011;7631;52.088;5.088;2023-09-19T01:01:52;1.43;;;0.90;;
15063;SDS011;7631;52.088;5.088;2023-09-19T01:04:19;1.50;;;0.90;;
15063;SDS011;7631;52.088;5.088;2023-09-19T01:06:44;2.53;;;1.10;;
15063;SDS011;7631;52.088;5.088;2023-09-19T01:09:10;2.47;;;1.20;;
15063;SDS011;7631;52.088;5.088;2023-09-19T01:11:38;1.27;;;1.10;;
15063;SDS011;7631;52.088;5.088;2023-09-19T01:14:20;1.93;;;1.00;;
15063;SDS011;7631;52.088;5.088;2023-09-19T01:16:50;1.47;;;1.07;;
15063;SDS011;7631;52.088;5.088;2023-09-19T01:29:44;2.03;;;1.00;;
15063;SDS011;7631;52.088;5.088;2023-09-19T01:32:11;2.83;;;1.30;;
15063;SDS011;7631;52.088;5.088;2023-09-19T01:34:43;2.40;;;1.10;;
15063;SDS011;7631;52.088;5.088;2023-09-19T01:37:10;3.23;;;1.10;;
15063;SDS011;7631;52.088;5.088;2023-09-19T01:39:35;2.17;;;0.90;;
15063;SDS011;7631;52.088;5.088;2023-09-19T01:42:06;1.77;;;1.00;;
15063;SDS011;7631;52.088;5.088;2023-09-19T01:47:05;2.40;;;1.10;;
15063;SDS011;7631;52.088;5.088;2023-09-19T01:49:41;2.50;;;1.10;;
15063;SDS011;7631;52.088;5.088;2023-09-19T01:52:12;1.50;;;0.83;;
15063;SDS011;7631;52.088;5.088;2023-09-19T01:54:51;1.30;;;0.90;;
15063;SDS011;7631;52.088;5.088;2023-09-19T01:57:22;1.40;;;1.00;;
15063;SDS011;7631;52.088;5.088;2023-09-19T01:59:52;1.93;;;0.90;;
15063;SDS011;7631;52.088;5.088;2023-09-19T02:02:20;3.17;;;1.10;;
15063;SDS011;7631;52.088;5.088;2023-09-19T02:04:47;2.83;;;1.33;;
15063;SDS011;7631;52.088;5.088;2023-09-19T02:07:13;2.13;;;0.93;;
15063;SDS011;7631;52.088;5.088;2023-09-19T02:09:41;2.10;;;1.00;;
15063;SDS011;7631;52.088;5.088;2023-09-19T02:12:08;2.00;;;0.93;;
15063;SDS011;7631;52.088;5.088;2023-09-19T02:14:33;1.30;;;1.00;;
15063;SDS011;7631;52.088;5.088;2023-09-19T02:17:01;2.57;;;1.47;;
15063;SDS011;7631;52.088;5.088;2023-09-19T02:19:26;2.93;;;1.10;;
15063;SDS011;7631;52.088;5.088;2023-09-19T02:21:51;2.20;;;1.00;;
15063;SDS011;7631;52.088;5.088;2023-09-19T02:24:17;3.00;;;1.30;;
15063;SDS011;7631;52.088;5.088;2023-09-19T02:26:44;2.43;;;0.90;;
15063;SDS011;7631;52.088;5.088;2023-09-19T02:29:09;1.77;;;0.90;;
15063;SDS011;7631;52.088;5.088;2023-09-19T02:31:37;2.40;;;1.20;;
15063;SDS011;7631;52.088;5.088;2023-09-19T02:34:03;3.00;;;1.30;;
15063;SDS011;7631;52.088;5.088;2023-09-19T02:36:30;1.53;;;1.00;;
15063;SDS011;7631;52.088;5.088;2023-09-19T02:38:56;2.23;;;1.00;;
15063;SDS011;7631;52.088;5.088;2023-09-19T02:41:21;2.20;;;1.10;;
15063;SDS011;7631;52.088;5.088;2023-09-19T02:43:46;1.73;;;1.20;;
15063;SDS011;7631;52.088;5.088;2023-09-19T02:46:12;1.70;;;1.00;;
15063;SDS011;7631;52.088;5.088;2023-09-19T02:48:37;1.77;;;0.93;;
15063;SDS011;7631;52.088;5.088;2023-09-19T02:51:03;2.43;;;1.17;;
15063;SDS011;7631;52.088;5.088;2023-09-19T02:53:28;1.80;;;1.00;;
15063;SDS011;7631;52.088;5.088;2023-09-19T02:55:55;2.27;;;1.07;;
15063;SDS011;7631;52.088;5.088;2023-09-19T02:58:21;2.80;;;1.40;;
15063;SDS011;7631;52.088;5.088;2023-09-19T03:00:46;3.03;;;1.17;;
15063;SDS011;7631;52.088;5.088;2023-09-19T03:03:12;2.80;;;1.23;;
15063;SDS011;7631;52.088;5.088;2023-09-19T03:05:38;3.60;;;1.20;;
15063;SDS011;7631;52.088;5.088;2023-09-19T03:08:03;2.00;;;1.10;;
15063;SDS011;7631;52.088;5.088;2023-09-19T03:10:29;2.53;;;1.10;;
15063;SDS011;7631;52.088;5.088;2023-09-19T03:12:56;3.13;;;1.20;;
15063;SDS011;7631;52.088;5.088;2023-09-19T03:15:21;2.30;;;1.20;;
15063;SDS011;7631;52.088;5.088;2023-09-19T03:17:47;2.23;;;1.20;;
15063;SDS011;7631;52.088;5.088;2023-09-19T03:20:13;2.30;;;1.10;;
15063;SDS011;7631;52.088;5.088;2023-09-19T03:22:42;2.70;;;1.20;;
15063;SDS011;7631;52.088;5.088;2023-09-19T03:25:07;2.63;;;1.50;;
15063;SDS011;7631;52.088;5.088;2023-09-19T03:27:37;3.90;;;1.40;;
15063;SDS011;7631;52.088;5.088;2023-09-19T03:30:03;1.87;;;1.03;;
15063;SDS011;7631;52.088;5.088;2023-09-19T03:32:32;3.27;;;1.23;;
15063;SDS011;7631;52.088;5.088;2023-09-19T03:34:58;3.13;;;1.20;;
15063;SDS011;7631;52.088;5.088;2023-09-19T03:37:23;2.83;;;1.27;;
15063;SDS011;7631;52.088;5.088;2023-09-19T03:39:48;3.30;;;1.30;;
15063;SDS011;7631;52.088;5.088;2023-09-19T03:42:13;3.50;;;1.40;;
15063;SDS011;7631;52.088;5.088;2023-09-19T03:55:17;3.43;;;1.50;;
15063;SDS011;7631;52.088;5.088;2023-09-19T03:57:42;2.03;;;1.00;;
15063;SDS011;7631;52.088;5.088;2023-09-19T04:00:12;2.40;;;1.40;;
15063;SDS011;7631;52.088;5.088;2023-09-19T04:02:39;2.73;;;1.50;;
15063;SDS011;7631;52.088;5.088;2023-09-19T04:05:06;2.33;;;1.30;;
15063;SDS011;7631;52.088;5.088;2023-09-19T04:07:31;2.60;;;1.30;;
15063;SDS011;7631;52.088;5.088;2023-09-19T04:09:56;3.37;;;1.23;;
15063;SDS011;7631;52.088;5.088;2023-09-19T04:12:21;2.83;;;1.30;;
15063;SDS011;7631;52.088;5.088;2023-09-19T04:14:47;3.93;;;1.67;;
15063;SDS011;7631;52.088;5.088;2023-09-19T04:17:12;3.53;;;1.50;;
15063;SDS011;7631;52.088;5.088;2023-09-19T04:19:37;2.70;;;1.47;;
15063;SDS011;7631;52.088;5.088;2023-09-19T04:22:03;5.20;;;1.77;;
15063;SDS011;7631;52.088;5.088;2023-09-19T04:24:29;3.77;;;1.40;;
15063;SDS011;7631;52.088;5.088;2023-09-19T04:26:54;2.67;;;1.30;;
15063;SDS011;7631;52.088;5.088;2023-09-19T04:29:19;2.93;;;1.50;;
15063;SDS011;7631;52.088;5.088;2023-09-19T04:31:45;2.07;;;1.10;;
15063;SDS011;7631;52.088;5.088;2023-09-19T04:34:11;3.97;;;1.60;;
15063;SDS011;7631;52.088;5.088;2023-09-19T04:36:39;3.23;;;1.50;;
15063;SDS011;7631;52.088;5.088;2023-09-19T04:39:04;2.60;;;1.27;;
15063;SDS011;7631;52.088;5.088;2023-09-19T04:41:30;3.27;;;1.40;;
15063;SDS011;7631;52.088;5.088;2023-09-19T04:43:55;2.00;;;1.30;;
15063;SDS011;7631;52.088;5.088;2023-09-19T04:46:20;4.07;;;1.30;;
15063;SDS011;7631;52.088;5.088;2023-09-19T04:48:45;3.93;;;1.50;;
15063;SDS011;7631;52.088;5.088;2023-09-19T04:51:11;4.50;;;1.50;;
15063;SDS011;7631;52.088;5.088;2023-09-19T04:53:36;2.27;;;1.10;;
15063;SDS011;7631;52.088;5.088;2023-09-19T04:56:02;3.63;;;1.37;;
15063;SDS011;7631;52.088;5.088;2023-09-19T04:58:32;2.80;;;1.43;;
15063;SDS011;7631;52.088;5.088;2023-09-19T05:00:58;3.77;;;1.33;;
15063;SDS011;7631;52.088;5.088;2023-09-19T05:03:24;2.60;;;1.30;;
15063;SDS011;7631;52.088;5.088;2023-09-19T05:05:49;3.30;;;1.30;;
15063;SDS011;7631;52.088;5.088;2023-09-19T05:08:15;4.20;;;1.60;;
15063;SDS011;7631;52.088;5.088;2023-09-19T05:10:40;3.40;;;1.40;;
15063;SDS011;7631;52.088;5.088;2023-09-19T05:13:06;3.43;;;1.53;;
15063;SDS011;7631;52.088;5.088;2023-09-19T05:15:35;2.90;;;1.50;;
15063;SDS011;7631;52.088;5.088;2023-09-19T05:18:01;4.80;;;1.80;;
15063;SDS011;7631;52.088;5.088;2023-09-19T05:20:27;4.97;;;1.77;;
15063;SDS011;7631;52.088;5.088;2023-09-19T05:23:00;4.00;;;1.40;;
15063;SDS011;7631;52.088;5.088;2023-09-19T05:25:26;3.47;;;1.70;;
15063;SDS011;7631;52.088;5.088;2023-09-19T05:27:54;3.27;;;1.50;;
15063;SDS011;7631;52.088;5.088;2023-09-19T05:30:20;6.10;;;1.50;;
15063;SDS011;7631;52.088;5.088;2023-09-19T05:32:45;4.47;;;1.63;;
15063;SDS011;7631;52.088;5.088;2023-09-19T05:35:10;3.37;;;1.33;;
15063;SDS011;7631;52.088;5.088;2023-09-19T05:37:38;2.70;;;1.33;;
15063;SDS011;7631;52.088;5.088;2023-09-19T05:40:03;2.77;;;1.30;;
15063;SDS011;7631;52.088;5.088;2023-09-19T05:42:32;4.23;;;1.60;;
15063;SDS011;7631;52.088;5.088;2023-09-19T05:44:57;5.50;;;1.57;;
15063;SDS011;7631;52.088;5.088;2023-09-19T05:47:23;3.83;;;1.70;;
15063;SDS011;7631;52.088;5.088;2023-09-19T05:49:50;2.30;;;1.30;;
15063;SDS011;7631;52.088;5.088;2023-09-19T05:52:15;2.53;;;1.23;;
15063;SDS011;7631;52.088;5.088;2023-09-19T05:54:42;3.77;;;1.50;;
15063;SDS011;7631;52.088;5.088;2023-09-19T05:57:08;4.07;;;1.37;;
15063;SDS011;7631;52.088;5.088;2023-09-19T05:59:33;3.30;;;1.57;;
15063;SDS011;7631;52.088;5.088;2023-09-19T06:01:59;5.10;;;1.90;;
15063;SDS011;7631;52.088;5.088;2023-09-19T06:04:24;3.43;;;1.70;;
15063;SDS011;7631;52.088;5.088;2023-09-19T06:06:50;3.63;;;1.57;;
15063;SDS011;7631;52.088;5.088;2023-09-19T06:09:16;4.30;;;1.50;;
15063;SDS011;7631;52.088;5.088;2023-09-19T06:11:42;4.40;;;1.60;;
15063;SDS011;7631;52.088;5.088;2023-09-19T06:14:08;3.85;;;1.70;;
15063;SDS011;7631;52.088;5.088;2023-09-19T06:16:35;5.93;;;2.22;;
15063;SDS011;7631;52.088;5.088;2023-09-19T06:19:00;3.90;;;2.00;;
15063;SDS011;7631;52.088;5.088;2023-09-19T06:21:26;5.77;;;2.00;;
15063;SDS011;7631;52.088;5.088;2023-09-19T06:23:52;3.63;;;1.47;;
15063;SDS011;7631;52.088;5.088;2023-09-19T06:26:18;5.73;;;1.90;;
15063;SDS011;7631;52.088;5.088;2023-09-19T06:28:44;6.63;;;2.00;;
15063;SDS011;7631;52.088;5.088;2023-09-19T06:31:10;5.40;;;1.90;;
15063;SDS011;7631;52.088;5.088;2023-09-19T06:33:37;4.50;;;1.50;;
15063;SDS011;7631;52.088;5.088;2023-09-19T06:36:05;4.93;;;2.07;;
15063;SDS011;7631;52.088;5.088;2023-09-19T06:38:31;3.97;;;1.70;;
15063;SDS011;7631;52.088;5.088;2023-09-19T06:40:59;4.17;;;1.70;;
15063;SDS011;7631;52.088;5.088;2023-09-19T06:43:26;3.77;;;1.80;;
15063;SDS011;7631;52.088;5.088;2023-09-19T06:45:51;5.07;;;1.73;;
15063;SDS011;7631;52.088;5.088;2023-09-19T06:48:17;5.87;;;2.20;;
15063;SDS011;7631;52.088;5.088;2023-09-19T06:50:43;4.53;;;1.83;;
15063;SDS011;7631;52.088;5.088;2023-09-19T06:53:09;2.97;;;1.80;;
15063;SDS011;7631;52.088;5.088;2023-09-19T06:55:35;3.93;;;1.53;;
15063;SDS011;7631;52.088;5.088;2023-09-19T06:58:01;4.17;;;1.83;;
15063;SDS011;7631;52.088;5.088;2023-09-19T07:00:26;4.77;;;1.80;;
15063;SDS011;7631;52.088;5.088;2023-09-19T07:03:00;3.83;;;1.63;;
15063;SDS011;7631;52.088;5.088;2023-09-19T07:05:32;3.47;;;1.80;;
15063;SDS011;7631;52.088;5.088;2023-09-19T07:07:58;4.60;;;1.90;;
15063;SDS011;7631;52.088;5.088;2023-09-19T07:10:24;4.50;;;1.83;;
15063;SDS011;7631;52.088;5.088;2023-09-19T07:12:57;4.20;;;1.80;;
15063;SDS011;7631;52.088;5.088;2023-09-19T07:15:23;3.83;;;1.70;;
15063;SDS011;7631;52.088;5.088;2023-09-19T07:17:50;4.00;;;1.50;;
15063;SDS011;7631;52.088;5.088;2023-09-19T07:20:15;4.57;;;1.73;;
15063;SDS011;7631;52.088;5.088;2023-09-19T07:22:41;5.13;;;2.00;;
15063;SDS011;7631;52.088;5.088;2023-09-19T07:25:06;4.13;;;1.70;;
15063;SDS011;7631;52.088;5.088;2023-09-19T07:27:33;4.13;;;1.73;;
15063;SDS011;7631;52.088;5.088;2023-09-19T07:29:58;5.43;;;1.83;;
15063;SDS011;7631;52.088;5.088;2023-09-19T07:32:24;5.23;;;2.00;;
15063;SDS011;7631;52.088;5.088;2023-09-19T07:34:49;7.00;;;2.37;;
15063;SDS011;7631;52.088;5.088;2023-09-19T07:37:15;6.50;;;1.83;;
15063;SDS011;7631;52.088;5.088;2023-09-19T07:39:40;6.53;;;1.80;;
15063;SDS011;7631;52.088;5.088;2023-09-19T07:42:06;2.83;;;1.40;;
15063;SDS011;7631;52.088;5.088;2023-09-19T07:44:32;4.83;;;1.97;;
15063;SDS011;7631;52.088;5.088;2023-09-19T07:46:57;5.03;;;2.13;;
15063;SDS011;7631;52.088;5.088;2023-09-19T07:49:23;3.90;;;1.60;;
15063;SDS011;7631;52.088;5.088;2023-09-19T07:51:48;6.37;;;1.80;;
15063;SDS011;7631;52.088;5.088;2023-09-19T07:54:14;5.10;;;2.00;;
15063;SDS011;7631;52.088;5.088;2023-09-19T07:56:39;3.77;;;1.80;;
15063;SDS011;7631;52.088;5.088;2023-09-19T07:59:05;5.37;;;1.77;;
15063;SDS011;7631;52.088;5.088;2023-09-19T08:01:30;5.43;;;1.97;;
15063;SDS011;7631;52.088;5.088;2023-09-19T08:03:56;4.50;;;1.80;;
15063;SDS011;7631;52.088;5.088;2023-09-19T08:06:21;5.40;;;1.67;;
15063;SDS011;7631;52.088;5.088;2023-09-19T08:08:47;4.63;;;2.17;;
15063;SDS011;7631;52.088;5.088;2023-09-19T08:11:15;5.70;;;2.20;;
15063;SDS011;7631;52.088;5.088;2023-09-19T08:13:46;3.83;;;1.70;;
15063;SDS011;7631;52.088;5.088;2023-09-19T08:16:14;6.50;;;2.20;;
15063;SDS011;7631;52.088;5.088;2023-09-19T08:18:40;6.87;;;2.10;;
15063;SDS011;7631;52.088;5.088;2023-09-19T08:21:06;7.17;;;2.00;;
15063;SDS011;7631;52.088;5.088;2023-09-19T08:23:36;5.30;;;1.87;;
15063;SDS011;7631;52.088;5.088;2023-09-19T08:26:01;4.07;;;1.77;;
15063;SDS011;7631;52.088;5.088;2023-09-19T08:28:33;5.40;;;1.57;;
15063;SDS011;7631;52.088;5.088;2023-09-19T08:31:07;4.40;;;1.73;;
15063;SDS011;7631;52.088;5.088;2023-09-19T08:33:34;4.77;;;2.17;;
15063;SDS011;7631;52.088;5.088;2023-09-19T08:36:00;5.67;;;1.93;;
15063;SDS011;7631;52.088;5.088;2023-09-19T08:38:25;4.33;;;1.77;;
15063;SDS011;7631;52.088;5.088;2023-09-19T08:40:57;5.13;;;2.00;;
15063;SDS011;7631;52.088;5.088;2023-09-19T08:43:26;3.13;;;1.90;;
15063;SDS011;7631;52.088;5.088;2023-09-19T08:46:05;5.20;;;1.97;;
15063;SDS011;7631;52.088;5.088;2023-09-19T08:48:33;4.10;;;1.70;;
15063;SDS011;7631;52.088;5.088;2023-09-19T08:51:03;5.80;;;2.23;;
15063;SDS011;7631;52.088;5.088;2023-09-19T08:53:50;6.43;;;2.23;;
15063;SDS011;7631;52.088;5.088;2023-09-19T08:56:17;6.83;;;2.03;;
15063;SDS011;7631;52.088;5.088;2023-09-19T08:58:59;4.17;;;2.07;;
15063;SDS011;7631;52.088;5.088;2023-09-19T09:01:27;5.40;;;1.97;;
15063;SDS011;7631;52.088;5.088;2023-09-19T09:03:52;4.43;;;1.77;;
15063;SDS011;7631;52.088;5.088;2023-09-19T09:06:19;4.37;;;1.70;;
15063;SDS011;7631;52.088;5.088;2023-09-19T09:08:45;4.50;;;1.90;;
15063;SDS011;7631;52.088;5.088;2023-09-19T09:11:11;4.97;;;2.13;;
15063;SDS011;7631;52.088;5.088;2023-09-19T09:13:36;5.40;;;1.90;;
15063;SDS011;7631;52.088;5.088;2023-09-19T09:16:02;4.33;;;2.03;;
15063;SDS011;7631;52.088;5.088;2023-09-19T09:18:28;4.83;;;2.20;;
15063;SDS011;7631;52.088;5.088;2023-09-19T09:20:55;4.67;;;1.73;;
15063;SDS011;7631;52.088;5.088;2023-09-19T09:23:21;4.63;;;2.07;;
15063;SDS011;7631;52.088;5.088;2023-09-19T09:25:46;4.43;;;1.83;;
15063;SDS011;7631;52.088;5.088;2023-09-19T09:28:11;4.63;;;1.60;;
15063;SDS011;7631;52.088;5.088;2023-09-19T09:30:44;4.83;;;2.30;;
15063;SDS011;7631;52.088;5.088;2023-09-19T09:33:13;4.50;;;2.13;;
15063;SDS011;7631;52.088;5.088;2023-09-19T09:35:58;5.90;;;2.33;;
15063;SDS011;7631;52.088;5.088;2023-09-19T09:38:44;3.57;;;1.90;;
15063;SDS011;7631;52.088;5.088;2023-09-19T09:41:11;5.20;;;2.20;;
15063;SDS011;7631;52.088;5.088;2023-09-19T09:43:40;6.17;;;1.97;;
15063;SDS011;7631;52.088;5.088;2023-09-19T09:51:40;4.13;;;1.77;;
15063;SDS011;7631;52.088;5.088;2023-09-19T09:54:17;5.87;;;2.10;;
15063;SDS011;7631;52.088;5.088;2023-09-19T09:56:55;5.67;;;2.30;;
15063;SDS011;7631;52.088;5.088;2023-09-19T09:59:23;6.77;;;2.10;;
15063;SDS011;7631;52.088;5.088;2023-09-19T10:02:08;4.83;;;1.70;;
15063;SDS011;7631;52.088;5.088;2023-09-19T10:04:38;4.23;;;1.60;;
15063;SDS011;7631;52.088;5.088;2023-09-19T10:07:29;5.27;;;1.90;;
15063;SDS011;7631;52.088;5.088;2023-09-19T10:10:04;5.27;;;2.27;;
15063;SDS011;7631;52.088;5.088;2023-09-19T10:12:45;6.40;;;2.20;;
15063;SDS011;7631;52.088;5.088;2023-09-19T10:15:11;4.70;;;2.10;;
15063;SDS011;7631;52.088;5.088;2023-09-19T10:17:40;5.73;;;2.27;;
15063;SDS011;7631;52.088;5.088;2023-09-19T10:20:08;4.80;;;1.93;;
15063;SDS011;7631;52.088;5.088;2023-09-19T10:22:44;5.63;;;2.47;;
15063;SDS011;7631;52.088;5.088;2023-09-19T10:25:21;5.77;;;2.03;;
15063;SDS011;7631;52.088;5.088;2023-09-19T10:27:48;5.63;;;2.40;;
15063;SDS011;7631;52.088;5.088;2023-09-19T10:30:15;5.27;;;1.70;;
15063;SDS011;7631;52.088;5.088;2023-09-19T10:32:41;6.00;;;2.00;;
15063;SDS011;7631;52.088;5.088;2023-09-19T10:35:06;5.03;;;1.90;;
15063;SDS011;7631;52.088;5.088;2023-09-19T10:37:32;6.57;;;2.03;;
15063;SDS011;7631;52.088;5.088;2023-09-19T10:39:59;6.33;;;1.80;;
15063;SDS011;7631;52.088;5.088;2023-09-19T10:42:24;5.57;;;2.10;;
15063;SDS011;7631;52.088;5.088;2023-09-19T10:44:54;4.37;;;1.80;;
15063;SDS011;7631;52.088;5.088;2023-09-19T10:47:20;4.50;;;1.70;;
15063;SDS011;7631;52.088;5.088;2023-09-19T10:49:49;3.50;;;1.53;;
15063;SDS011;7631;52.088;5.088;2023-09-19T10:52:15;4.73;;;1.70;;
15063;SDS011;7631;52.088;5.088;2023-09-19T10:54:45;4.73;;;1.60;;
15063;SDS011;7631;52.088;5.088;2023-09-19T10:57:12;4.23;;;1.90;;
15063;SDS011;7631;52.088;5.088;2023-09-19T10:59:49;3.77;;;2.00;;
15063;SDS011;7631;52.088;5.088;2023-09-19T11:02:45;5.17;;;2.10;;
15063;SDS011;7631;52.088;5.088;2023-09-19T11:05:31;4.50;;;1.90;;
15063;SDS011;7631;52.088;5.088;2023-09-19T11:07:57;5.57;;;1.83;;
15063;SDS011;7631;52.088;5.088;2023-09-19T11:10:44;5.10;;;1.60;;
15063;SDS011;7631;52.088;5.088;2023-09-19T11:13:42;4.97;;;1.60;;
15063;SDS011;7631;52.088;5.088;2023-09-19T11:16:03;3.23;;;1.60;;
15063;SDS011;7631;52.088;5.088;2023-09-19T11:26:41;4.95;;;1.80;;
15063;SDS011;7631;52.088;5.088;2023-09-19T11:29:25;3.30;;;1.70;;
15063;SDS011;7631;52.088;5.088;2023-09-19T11:31:51;4.40;;;1.97;;
15063;SDS011;7631;52.088;5.088;2023-09-19T11:37:01;3.50;;;1.40;;
15063;SDS011;7631;52.088;5.088;2023-09-19T11:39:29;3.50;;;1.53;;
15063;SDS011;7631;52.088;5.088;2023-09-19T11:41:54;3.67;;;1.40;;
15063;SDS011;7631;52.088;5.088;2023-09-19T11:44:31;3.80;;;1.35;;
15063;SDS011;7631;52.088;5.088;2023-09-19T11:46:58;3.17;;;1.40;;
15063;SDS011;7631;52.088;5.088;2023-09-19T11:49:31;4.00;;;1.50;;
15063;SDS011;7631;52.088;5.088;2023-09-19T11:51:57;4.93;;;1.47;;
15063;SDS011;7631;52.088;5.088;2023-09-19T11:54:24;4.97;;;1.40;;
15063;SDS011;7631;52.088;5.088;2023-09-19T11:56:53;3.77;;;1.40;;
15063;SDS011;7631;52.088;5.088;2023-09-19T11:59:31;2.73;;;1.43;;
15063;SDS011;7631;52.088;5.088;2023-09-19T12:02:00;6.70;;;1.70;;
15063;SDS011;7631;52.088;5.088;2023-09-19T12:07:06;2.13;;;1.30;;
15063;SDS011;7631;52.088;5.088;2023-09-19T12:09:37;4.00;;;1.30;;
15063;SDS011;7631;52.088;5.088;2023-09-19T12:12:02;6.37;;;1.70;;
15063;SDS011;7631;52.088;5.088;2023-09-19T12:14:28;3.23;;;1.27;;
15063;SDS011;7631;52.088;5.088;2023-09-19T12:16:54;2.43;;;1.27;;
15063;SDS011;7631;52.088;5.088;2023-09-19T12:19:21;3.50;;;1.30;;
15063;SDS011;7631;52.088;5.088;2023-09-19T12:21:56;2.23;;;1.10;;
15063;SDS011;7631;52.088;5.088;2023-09-19T12:24:29;1.67;;;1.10;;
15063;SDS011;7631;52.088;5.088;2023-09-19T12:26:59;2.80;;;1.20;;
15063;SDS011;7631;52.088;5.088;2023-09-19T12:29:26;2.23;;;0.90;;
15063;SDS011;7631;52.088;5.088;2023-09-19T12:31:56;2.37;;;1.20;;
15063;SDS011;7631;52.088;5.088;2023-09-19T12:34:29;4.27;;;1.40;;
15063;SDS011;7631;52.088;5.088;2023-09-19T12:37:04;4.13;;;1.30;;
15063;SDS011;7631;52.088;5.088;2023-09-19T12:39:36;2.50;;;1.10;;
15063;SDS011;7631;52.088;5.088;2023-09-19T12:42:01;2.97;;;1.30;;
15063;SDS011;7631;52.088;5.088;2023-09-19T12:44:29;3.27;;;1.07;;
15063;SDS011;7631;52.088;5.088;2023-09-19T12:46:54;2.90;;;1.17;;
15063;SDS011;7631;52.088;5.088;2023-09-19T12:49:19;2.53;;;1.20;;
15063;SDS011;7631;52.088;5.088;2023-09-19T12:51:45;3.23;;;1.10;;
15063;SDS011;7631;52.088;5.088;2023-09-19T12:54:11;3.03;;;1.10;;
15063;SDS011;7631;52.088;5.088;2023-09-19T12:56:39;2.63;;;1.10;;
15063;SDS011;7631;52.088;5.088;2023-09-19T12:59:09;3.80;;;1.17;;
15063;SDS011;7631;52.088;5.088;2023-09-19T13:01:38;3.53;;;1.40;;
15063;SDS011;7631;52.088;5.088;2023-09-19T13:04:14;2.23;;;1.10;;
15063;SDS011;7631;52.088;5.088;2023-09-19T13:06:51;2.77;;;1.10;;
15063;SDS011;7631;52.088;5.088;2023-09-19T13:09:17;3.50;;;1.40;;
15063;SDS011;7631;52.088;5.088;2023-09-19T13:11:43;3.23;;;1.20;;
15063;SDS011;7631;52.088;5.088;2023-09-19T13:16:57;4.43;;;1.20;;
15063;SDS011;7631;52.088;5.088;2023-09-19T13:19:42;2.43;;;1.10;;
15063;SDS011;7631;52.088;5.088;2023-09-19T13:24:57;2.60;;;1.17;;
15063;SDS011;7631;52.088;5.088;2023-09-19T13:27:23;2.53;;;1.30;;
15063;SDS011;7631;52.088;5.088;2023-09-19T13:29:49;3.03;;;1.50;;
15063;SDS011;7631;52.088;5.088;2023-09-19T13:32:14;2.87;;;1.10;;
15063;SDS011;7631;52.088;5.088;2023-09-19T13:34:39;2.17;;;0.90;;
15063;SDS011;7631;52.088;5.088;2023-09-19T13:37:04;3.43;;;1.33;;
15063;SDS011;7631;52.088;5.088;2023-09-19T13:39:31;2.33;;;1.17;;
15063;SDS011;7631;52.088;5.088;2023-09-19T13:41:56;2.95;;;0.88;;
15063;SDS011;7631;52.088;5.088;2023-09-19T13:44:21;2.83;;;1.23;;
15063;SDS011;7631;52.088;5.088;2023-09-19T13:46:48;1.80;;;0.80;;
15063;SDS011;7631;52.088;5.088;2023-09-19T13:49:15;2.08;;;1.00;;
15063;SDS011;7631;52.088;5.088;2023-09-19T13:51:42;3.35;;;1.27;;
15063;SDS011;7631;52.088;5.088;2023-09-19T13:54:08;2.88;;;1.30;;
15063;SDS011;7631;52.088;5.088;2023-09-19T13:56:34;1.17;;;0.80;;
15063;SDS011;7631;52.088;5.088;2023-09-19T13:58:59;2.50;;;0.90;;
15063;SDS011;7631;52.088;5.088;2023-09-19T14:01:24;2.97;;;1.00;;
15063;SDS011;7631;52.088;5.088;2023-09-19T14:03:51;1.65;;;1.00;;
15063;SDS011;7631;52.088;5.088;2023-09-19T14:06:19;1.60;;;1.00;;
15063;SDS011;7631;52.088;5.088;2023-09-19T14:08:44;2.90;;;1.27;;
15063;SDS011;7631;52.088;5.088;2023-09-19T14:11:13;3.93;;;1.23;;
15063;SDS011;7631;52.088;5.088;2023-09-19T14:13:39;1.40;;;0.70;;
15063;SDS011;7631;52.088;5.088;2023-09-19T14:16:05;3.50;;;1.20;;
15063;SDS011;7631;52.088;5.088;2023-09-19T14:18:32;2.13;;;1.13;;
15063;SDS011;7631;52.088;5.088;2023-09-19T14:21:02;2.20;;;1.30;;
15063;SDS011;7631;52.088;5.088;2023-09-19T14:23:34;2.47;;;1.30;;
15063;SDS011;7631;52.088;5.088;2023-09-19T14:26:00;2.97;;;1.30;;
15063;SDS011;7631;52.088;5.088;2023-09-19T14:28:26;3.40;;;1.43;;
15063;SDS011;7631;52.088;5.088;2023-09-19T14:30:56;4.00;;;1.50;;
15063;SDS011;7631;52.088;5.088;2023-09-19T14:33:21;2.73;;;1.40;;
15063;SDS011;7631;52.088;5.088;2023-09-19T14:35:47;2.70;;;1.03;;
15063;SDS011;7631;52.088;5.088;2023-09-19T14:38:12;2.47;;;1.30;;
15063;SDS011;7631;52.088;5.088;2023-09-19T14:40:37;3.50;;;1.47;;
15063;SDS011;7631;52.088;5.088;2023-09-19T14:43:04;1.77;;;1.30;;
15063;SDS011;7631;52.088;5.088;2023-09-19T14:45:30;1.53;;;1.20;;
15063;SDS011;7631;52.088;5.088;2023-09-19T14:47:56;3.23;;;1.20;;
15063;SDS011;7631;52.088;5.088;2023-09-19T14:50:22;3.40;;;1.47;;
15063;SDS011;7631;52.088;5.088;2023-09-19T14:52:48;3.33;;;1.50;;
15063;SDS011;7631;52.088;5.088;2023-09-19T14:55:18;3.57;;;2.00;;
15063;SDS011;7631;52.088;5.088;2023-09-19T14:57:48;2.87;;;1.50;;
15063;SDS011;7631;52.088;5.088;2023-09-19T15:00:16;4.00;;;1.43;;
15063;SDS011;7631;52.088;5.088;2023-09-19T15:02:45;5.07;;;1.87;;
15063;SDS011;7631;52.088;5.088;2023-09-19T15:05:13;5.20;;;1.70;;
15063;SDS011;7631;52.088;5.088;2023-09-19T15:07:41;3.33;;;1.47;;
15063;SDS011;7631;52.088;5.088;2023-09-19T15:10:10;3.17;;;1.50;;
15063;SDS011;7631;52.088;5.088;2023-09-19T15:12:38;3.37;;;1.53;;
15063;SDS011;7631;52.088;5.088;2023-09-19T15:15:04;4.50;;;1.60;;
15063;SDS011;7631;52.088;5.088;2023-09-19T15:17:33;3.47;;;1.40;;
15063;SDS011;7631;52.088;5.088;2023-09-19T15:19:59;4.73;;;1.80;;
15063;SDS011;7631;52.088;5.088;2023-09-19T15:22:24;3.90;;;1.63;;
15063;SDS011;7631;52.088;5.088;2023-09-19T15:24:50;4.10;;;1.50;;
15063;SDS011;7631;52.088;5.088;2023-09-19T15:27:15;2.87;;;1.50;;
15063;SDS011;7631;52.088;5.088;2023-09-19T15:29:44;3.10;;;1.50;;
15063;SDS011;7631;52.088;5.088;2023-09-19T15:32:10;2.63;;;1.50;;
15063;SDS011;7631;52.088;5.088;2023-09-19T15:34:36;4.17;;;1.97;;
15063;SDS011;7631;52.088;5.088;2023-09-19T15:37:02;3.03;;;1.53;;
15063;SDS011;7631;52.088;5.088;2023-09-19T15:39:30;3.70;;;1.70;;
15063;SDS011;7631;52.088;5.088;2023-09-19T15:41:58;1.93;;;1.37;;
15063;SDS011;7631;52.088;5.088;2023-09-19T15:44:23;2.93;;;1.57;;
15063;SDS011;7631;52.088;5.088;2023-09-19T15:46:51;2.33;;;1.43;;
15063;SDS011;7631;52.088;5.088;2023-09-19T15:49:16;4.00;;;1.83;;
15063;SDS011;7631;52.088;5.088;2023-09-19T15:51:42;2.73;;;1.63;;